sensor_id;sensor_type;location;lat;lon;timestamp;temperature;humidity
45115;DHT22;30877;43.706;10.780;2023-03-23T00:01:08;13.60;96.70
45115;DHT22;30877;43.706;10.780;2023-03-23T00:03:47;13.60;96.70
45115;DHT22;30877;43.706;10.780;2023-03-23T00:06:15;13.50;96.70
45115;DHT22;30877;43.706;10.780;2023-03-23T00:08:46;13.60;96.70
45115;DHT22;30877;43.706;10.780;2023-03-23T00:11:14;13.60;96.70
45115;DHT22;30877;43.706;10.780;2023-03-23T00:13:41;13.50;96.70
45115;DHT22;30877;43.706;10.780;2023-03-23T00:16:08;13.50;96.70
45115;DHT22;30877;43.706;10.780;2023-03-23T00:18:44;13.50;96.70
45115;DHT22;30877;43.706;10.780;2023-03-23T00:21:10;13.60;96.70
45115;DHT22;30877;43.706;10.780;2023-03-23T00:23:41;13.60;96.70
45115;DHT22;30877;43.706;10.780;2023-03-23T00:26:11;13.60;96.70
45115;DHT22;30877;43.706;10.780;2023-03-23T00:28:38;13.50;96.70
45115;DHT22;30877;43.706;10.780;2023-03-23T00:31:07;13.40;96.70
45115;DHT22;30877;43.706;10.780;2023-03-23T00:33:36;13.50;96.70
45115;DHT22;30877;43.706;10.780;2023-03-23T00:36:08;13.60;96.70
45115;DHT22;30877;43.706;10.780;2023-03-23T00:38:50;13.50;96.70
45115;DHT22;30877;43.706;10.780;2023-03-23T00:41:19;13.40;96.70
45115;DHT22;30877;43.706;10.780;2023-03-23T00:43:48;13.40;96.70
45115;DHT22;30877;43.706;10.780;2023-03-23T00:46:14;13.40;96.70
45115;DHT22;30877;43.706;10.780;2023-03-23T00:48:41;13.50;96.70
45115;DHT22;30877;43.706;10.780;2023-03-23T00:51:11;13.50;96.70
45115;DHT22;30877;43.706;10.780;2023-03-23T00:53:38;13.50;96.70
45115;DHT22;30877;43.706;10.780;2023-03-23T00:56:08;13.50;96.70
45115;DHT22;30877;43.706;10.780;2023-03-23T00:58:35;13.50;96.70
45115;DHT22;30877;43.706;10.780;2023-03-23T01:01:02;13.40;96.70
45115;DHT22;30877;43.706;10.780;2023-03-23T01:03:28;13.50;96.70
45115;DHT22;30877;43.706;10.780;2023-03-23T01:06:04;13.50;96.70
45115;DHT22;30877;43.706;10.780;2023-03-23T01:08:31;13.40;96.70
45115;DHT22;30877;43.706;10.780;2023-03-23T01:11:05;13.30;96.70
45115;DHT22;30877;43.706;10.780;2023-03-23T01:13:34;13.20;96.70
45115;DHT22;30877;43.706;10.780;2023-03-23T01:16:00;13.20;96.70
45115;DHT22;30877;43.706;10.780;2023-03-23T01:18:28;13.30;96.70
45115;DHT22;30877;43.706;10.780;2023-03-23T01:20:54;13.30;96.70
45115;DHT22;30877;43.706;10.780;2023-03-23T01:23:21;13.30;96.70
45115;DHT22;30877;43.706;10.780;2023-03-23T01:25:48;13.30;96.70
45115;DHT22;30877;43.706;10.780;2023-03-23T01:28:15;13.30;96.70
45115;DHT22;30877;43.706;10.780;2023-03-23T01:30:43;13.20;96.70
45115;DHT22;30877;43.706;10.780;2023-03-23T01:33:10;13.00;96.70
45115;DHT22;30877;43.706;10.780;2023-03-23T01:35:38;13.10;96.70
45115;DHT22;30877;43.706;10.780;2023-03-23T01:38:04;13.20;96.70
45115;DHT22;30877;43.706;10.780;2023-03-23T01:40:31;13.30;96.70
45115;DHT22;30877;43.706;10.780;2023-03-23T01:42:58;13.10;96.70
45115;DHT22;30877;43.706;10.780;2023-03-23T01:45:30;12.90;96.70
45115;DHT22;30877;43.706;10.780;2023-03-23T01:48:09;12.80;96.70
45115;DHT22;30877;43.706;10.780;2023-03-23T01:50:42;12.90;96.70
45115;DHT22;30877;43.706;10.780;2023-03-23T01:53:11;12.90;96.70
45115;DHT22;30877;43.706;10.780;2023-03-23T01:55:39;13.00;96.70
45115;DHT22;30877;43.706;10.780;2023-03-23T01:58:08;13.20;96.70
45115;DHT22;30877;43.706;10.780;2023-03-23T02:00:35;13.20;96.70
45115;DHT22;30877;43.706;10.780;2023-03-23T02:03:03;13.20;96.70
45115;DHT22;30877;43.706;10.780;2023-03-23T02:05:38;13.30;96.70
45115;DHT22;30877;43.706;10.780;2023-03-23T02:08:23;13.30;96.70
45115;DHT22;30877;43.706;10.780;2023-03-23T02:10:50;13.40;96.70
45115;DHT22;30877;43.706;10.780;2023-03-23T02:13:17;13.30;96.70
45115;DHT22;30877;43.706;10.780;2023-03-23T02:15:48;13.30;96.70
45115;DHT22;30877;43.706;10.780;2023-03-23T02:21:39;13.30;96.70
45115;DHT22;30877;43.706;10.780;2023-03-23T02:24:35;13.30;96.70
45115;DHT22;30877;43.706;10.780;2023-03-23T02:27:09;13.30;96.70
45115;DHT22;30877;43.706;10.780;2023-03-23T02:30:09;13.40;96.70
45115;DHT22;30877;43.706;10.780;2023-03-23T02:35:32;13.40;96.70
45115;DHT22;30877;43.706;10.780;2023-03-23T02:38:02;13.50;96.70
45115;DHT22;30877;43.706;10.780;2023-03-23T02:40:35;13.50;96.70
45115;DHT22;30877;43.706;10.780;2023-03-23T02:43:08;13.50;96.70
45115;DHT22;30877;43.706;10.780;2023-03-23T02:45:36;13.50;96.70
45115;DHT22;30877;43.706;10.780;2023-03-23T02:48:05;13.50;96.70
45115;DHT22;30877;43.706;10.780;2023-03-23T02:50:34;13.50;96.70
45115;DHT22;30877;43.706;10.780;2023-03-23T02:53:05;13.50;96.70
45115;DHT22;30877;43.706;10.780;2023-03-23T02:55:35;13.50;96.70
45115;DHT22;30877;43.706;10.780;2023-03-23T02:58:08;13.50;96.70
45115;DHT22;30877;43.706;10.780;2023-03-23T03:00:35;13.50;96.70
45115;DHT22;30877;43.706;10.780;2023-03-23T03:03:04;13.40;96.70
45115;DHT22;30877;43.706;10.780;2023-03-23T03:05:40;13.30;96.70
45115;DHT22;30877;43.706;10.780;2023-03-23T03:08:15;13.20;96.70
45115;DHT22;30877;43.706;10.780;2023-03-23T03:10:51;13.20;96.70
45115;DHT22;30877;43.706;10.780;2023-03-23T03:13:25;13.20;96.70
45115;DHT22;30877;43.706;10.780;2023-03-23T03:15:58;13.20;96.70
45115;DHT22;30877;43.706;10.780;2023-03-23T03:18:30;13.30;96.70
45115;DHT22;30877;43.706;10.780;2023-03-23T03:21:04;13.30;96.70
45115;DHT22;30877;43.706;10.780;2023-03-23T03:23:35;13.10;96.70
45115;DHT22;30877;43.706;10.780;2023-03-23T03:26:04;13.10;96.70
45115;DHT22;30877;43.706;10.780;2023-03-23T03:28:45;13.00;96.70
45115;DHT22;30877;43.706;10.780;2023-03-23T03:31:17;13.00;96.70
45115;DHT22;30877;43.706;10.780;2023-03-23T03:33:45;12.90;96.70
45115;DHT22;30877;43.706;10.780;2023-03-23T03:36:19;12.90;96.70
45115;DHT22;30877;43.706;10.780;2023-03-23T03:38:49;13.10;96.70
45115;DHT22;30877;43.706;10.780;2023-03-23T03:41:17;13.10;96.70
45115;DHT22;30877;43.706;10.780;2023-03-23T03:43:46;13.10;96.70
45115;DHT22;30877;43.706;10.780;2023-03-23T03:46:12;13.10;96.70
45115;DHT22;30877;43.706;10.780;2023-03-23T03:48:39;13.10;96.70
45115;DHT22;30877;43.706;10.780;2023-03-23T03:51:05;13.10;96.70
45115;DHT22;30877;43.706;10.780;2023-03-23T03:53:37;13.10;96.70
45115;DHT22;30877;43.706;10.780;2023-03-23T03:56:05;13.10;96.70
45115;DHT22;30877;43.706;10.780;2023-03-23T03:58:39;13.10;96.70
45115;DHT22;30877;43.706;10.780;2023-03-23T04:01:23;13.10;96.70
45115;DHT22;30877;43.706;10.780;2023-03-23T04:03:51;13.10;96.70
45115;DHT22;30877;43.706;10.780;2023-03-23T04:06:26;13.00;96.70
45115;DHT22;30877;43.706;10.780;2023-03-23T04:08:56;13.10;96.70
45115;DHT22;30877;43.706;10.780;2023-03-23T04:11:22;13.10;96.70
45115;DHT22;30877;43.706;10.780;2023-03-23T04:13:50;13.00;96.70
45115;DHT22;30877;43.706;10.780;2023-03-23T04:16:23;13.10;96.70
45115;DHT22;30877;43.706;10.780;2023-03-23T04:18:50;13.00;96.70
45115;DHT22;30877;43.706;10.780;2023-03-23T04:21:17;13.00;96.70
45115;DHT22;30877;43.706;10.780;2023-03-23T04:23:48;13.00;96.70
45115;DHT22;30877;43.706;10.780;2023-03-23T04:26:17;12.90;96.70
45115;DHT22;30877;43.706;10.780;2023-03-23T04:28:48;13.00;96.70
45115;DHT22;30877;43.706;10.780;2023-03-23T04:31:22;13.00;96.70
45115;DHT22;30877;43.706;10.780;2023-03-23T04:33:54;13.00;96.70
45115;DHT22;30877;43.706;10.780;2023-03-23T04:36:25;13.00;96.70
45115;DHT22;30877;43.706;10.780;2023-03-23T04:39:01;13.10;96.70
45115;DHT22;30877;43.706;10.780;2023-03-23T04:41:36;13.10;96.70
45115;DHT22;30877;43.706;10.780;2023-03-23T04:44:23;13.00;96.70
45115;DHT22;30877;43.706;10.780;2023-03-23T04:47:01;13.00;96.70
45115;DHT22;30877;43.706;10.780;2023-03-23T04:49:31;13.00;96.70
45115;DHT22;30877;43.706;10.780;2023-03-23T04:52:11;12.90;96.70
45115;DHT22;30877;43.706;10.780;2023-03-23T04:54:49;12.80;96.70
45115;DHT22;30877;43.706;10.780;2023-03-23T04:57:17;12.70;96.70
45115;DHT22;30877;43.706;10.780;2023-03-23T04:59:57;12.70;96.70
45115;DHT22;30877;43.706;10.780;2023-03-23T05:02:37;12.70;96.70
45115;DHT22;30877;43.706;10.780;2023-03-23T05:05:07;12.70;96.70
45115;DHT22;30877;43.706;10.780;2023-03-23T05:07:33;12.80;96.70
45115;DHT22;30877;43.706;10.780;2023-03-23T05:10:02;12.90;96.70
45115;DHT22;30877;43.706;10.780;2023-03-23T05:12:32;12.90;96.70
45115;DHT22;30877;43.706;10.780;2023-03-23T05:15:03;12.90;96.70
45115;DHT22;30877;43.706;10.780;2023-03-23T05:17:31;12.90;96.70
45115;DHT22;30877;43.706;10.780;2023-03-23T05:20:02;12.90;96.70
45115;DHT22;30877;43.706;10.780;2023-03-23T05:22:41;12.90;96.70
45115;DHT22;30877;43.706;10.780;2023-03-23T05:25:09;13.00;96.70
45115;DHT22;30877;43.706;10.780;2023-03-23T05:27:41;13.00;96.70
45115;DHT22;30877;43.706;10.780;2023-03-23T05:30:23;13.00;96.70
45115;DHT22;30877;43.706;10.780;2023-03-23T05:32:49;13.00;96.70
45115;DHT22;30877;43.706;10.780;2023-03-23T05:35:35;13.00;96.70
45115;DHT22;30877;43.706;10.780;2023-03-23T05:38:03;12.80;96.70
45115;DHT22;30877;43.706;10.780;2023-03-23T05:40:31;12.70;96.70
45115;DHT22;30877;43.706;10.780;2023-03-23T05:43:05;12.60;96.70
45115;DHT22;30877;43.706;10.780;2023-03-23T05:45:51;12.60;96.70
45115;DHT22;30877;43.706;10.780;2023-03-23T05:48:18;12.70;96.70
45115;DHT22;30877;43.706;10.780;2023-03-23T05:50:44;12.80;96.70
45115;DHT22;30877;43.706;10.780;2023-03-23T05:53:11;12.80;96.70
45115;DHT22;30877;43.706;10.780;2023-03-23T05:55:39;12.80;96.70
45115;DHT22;30877;43.706;10.780;2023-03-23T05:58:17;12.80;96.70
45115;DHT22;30877;43.706;10.780;2023-03-23T06:00:45;12.90;96.70
45115;DHT22;30877;43.706;10.780;2023-03-23T06:03:24;13.00;96.70
45115;DHT22;30877;43.706;10.780;2023-03-23T06:05:58;13.00;96.70
45115;DHT22;30877;43.706;10.780;2023-03-23T06:08:33;13.00;96.70
45115;DHT22;30877;43.706;10.780;2023-03-23T06:11:00;13.10;96.70
45115;DHT22;30877;43.706;10.780;2023-03-23T06:13:30;13.10;96.70
45115;DHT22;30877;43.706;10.780;2023-03-23T06:16:05;13.10;96.70
45115;DHT22;30877;43.706;10.780;2023-03-23T06:18:50;13.20;96.70
45115;DHT22;30877;43.706;10.780;2023-03-23T06:21:23;13.30;96.70
45115;DHT22;30877;43.706;10.780;2023-03-23T06:23:56;13.30;96.70
45115;DHT22;30877;43.706;10.780;2023-03-23T06:26:30;13.40;96.70
45115;DHT22;30877;43.706;10.780;2023-03-23T06:29:03;13.40;96.70
45115;DHT22;30877;43.706;10.780;2023-03-23T06:31:41;13.40;96.70
45115;DHT22;30877;43.706;10.780;2023-03-23T06:34:09;13.50;96.70
45115;DHT22;30877;43.706;10.780;2023-03-23T06:36:56;13.60;96.70
45115;DHT22;30877;43.706;10.780;2023-03-23T06:39:46;13.60;96.70
45115;DHT22;30877;43.706;10.780;2023-03-23T06:42:27;13.60;96.70
45115;DHT22;30877;43.706;10.780;2023-03-23T06:45:25;13.70;96.70
45115;DHT22;30877;43.706;10.780;2023-03-23T06:48:07;13.80;96.70
45115;DHT22;30877;43.706;10.780;2023-03-23T06:50:38;13.90;96.70
45115;DHT22;30877;43.706;10.780;2023-03-23T06:53:06;14.00;96.70
45115;DHT22;30877;43.706;10.780;2023-03-23T06:55:33;14.00;96.70
45115;DHT22;30877;43.706;10.780;2023-03-23T06:58:02;14.00;96.70
45115;DHT22;30877;43.706;10.780;2023-03-23T07:00:30;14.10;96.70
45115;DHT22;30877;43.706;10.780;2023-03-23T07:02:58;14.10;96.70
45115;DHT22;30877;43.706;10.780;2023-03-23T07:05:26;14.20;96.70
45115;DHT22;30877;43.706;10.780;2023-03-23T07:07:52;14.20;96.70
45115;DHT22;30877;43.706;10.780;2023-03-23T07:10:31;14.20;96.70
45115;DHT22;30877;43.706;10.780;2023-03-23T07:12:59;14.30;96.70
45115;DHT22;30877;43.706;10.780;2023-03-23T07:15:30;14.30;96.70
45115;DHT22;30877;43.706;10.780;2023-03-23T07:17:57;14.30;96.70
45115;DHT22;30877;43.706;10.780;2023-03-23T07:20:32;14.40;96.70
45115;DHT22;30877;43.706;10.780;2023-03-23T07:22:59;14.40;96.70
45115;DHT22;30877;43.706;10.780;2023-03-23T07:25:40;14.50;96.70
45115;DHT22;30877;43.706;10.780;2023-03-23T07:28:10;14.50;96.70
45115;DHT22;30877;43.706;10.780;2023-03-23T07:30:39;14.50;96.70
45115;DHT22;30877;43.706;10.780;2023-03-23T07:33:06;14.50;96.70
45115;DHT22;30877;43.706;10.780;2023-03-23T07:35:33;14.40;96.70
45115;DHT22;30877;43.706;10.780;2023-03-23T07:38:07;14.40;96.70
45115;DHT22;30877;43.706;10.780;2023-03-23T07:40:36;14.50;96.70
45115;DHT22;30877;43.706;10.780;2023-03-23T07:43:12;14.50;96.70
45115;DHT22;30877;43.706;10.780;2023-03-23T07:45:58;14.50;96.70
45115;DHT22;30877;43.706;10.780;2023-03-23T07:48:34;14.50;96.70
45115;DHT22;30877;43.706;10.780;2023-03-23T07:51:01;14.60;96.70
45115;DHT22;30877;43.706;10.780;2023-03-23T07:53:30;14.70;96.70
45115;DHT22;30877;43.706;10.780;2023-03-23T07:56:10;14.70;96.70
45115;DHT22;30877;43.706;10.780;2023-03-23T07:59:08;14.80;96.70
45115;DHT22;30877;43.706;10.780;2023-03-23T08:01:39;14.90;96.70
45115;DHT22;30877;43.706;10.780;2023-03-23T08:04:44;15.00;96.70
45115;DHT22;30877;43.706;10.780;2023-03-23T08:07:29;15.00;96.70
45115;DHT22;30877;43.706;10.780;2023-03-23T08:10:25;15.10;96.70
45115;DHT22;30877;43.706;10.780;2023-03-23T08:13:19;15.20;96.70
45115;DHT22;30877;43.706;10.780;2023-03-23T08:16:07;15.30;96.70
45115;DHT22;30877;43.706;10.780;2023-03-23T08:19:03;15.40;96.70
45115;DHT22;30877;43.706;10.780;2023-03-23T08:22:00;15.50;96.70
45115;DHT22;30877;43.706;10.780;2023-03-23T08:24:42;15.60;96.70
45115;DHT22;30877;43.706;10.780;2023-03-23T08:27:36;15.60;96.70
45115;DHT22;30877;43.706;10.780;2023-03-23T08:30:17;15.70;96.70
45115;DHT22;30877;43.706;10.780;2023-03-23T08:33:11;15.80;96.70
45115;DHT22;30877;43.706;10.780;2023-03-23T08:35:40;15.90;96.70
45115;DHT22;30877;43.706;10.780;2023-03-23T08:38:39;16.10;96.70
45115;DHT22;30877;43.706;10.780;2023-03-23T08:41:23;16.10;96.70
45115;DHT22;30877;43.706;10.780;2023-03-23T08:43:50;16.20;96.70
45115;DHT22;30877;43.706;10.780;2023-03-23T08:46:39;16.20;96.70
45115;DHT22;30877;43.706;10.780;2023-03-23T08:49:32;16.30;96.70
45115;DHT22;30877;43.706;10.780;2023-03-23T08:52:22;16.30;96.70
45115;DHT22;30877;43.706;10.780;2023-03-23T08:55:04;16.40;96.70
45115;DHT22;30877;43.706;10.780;2023-03-23T08:57:54;16.60;96.70
45115;DHT22;30877;43.706;10.780;2023-03-23T09:00:49;16.70;96.70
45115;DHT22;30877;43.706;10.780;2023-03-23T09:03:39;16.80;96.70
45115;DHT22;30877;43.706;10.780;2023-03-23T09:06:36;16.90;96.70
45115;DHT22;30877;43.706;10.780;2023-03-23T09:09:04;17.00;96.70
45115;DHT22;30877;43.706;10.780;2023-03-23T09:11:35;17.00;96.70
45115;DHT22;30877;43.706;10.780;2023-03-23T09:14:03;17.00;96.70
45115;DHT22;30877;43.706;10.780;2023-03-23T09:16:30;17.00;96.70
45115;DHT22;30877;43.706;10.780;2023-03-23T09:18:57;17.20;96.70
45115;DHT22;30877;43.706;10.780;2023-03-23T09:21:24;17.30;96.70
45115;DHT22;30877;43.706;10.780;2023-03-23T09:23:51;17.40;96.70
45115;DHT22;30877;43.706;10.780;2023-03-23T09:26:19;17.40;96.70
45115;DHT22;30877;43.706;10.780;2023-03-23T09:28:46;17.30;96.70
45115;DHT22;30877;43.706;10.780;2023-03-23T09:31:13;17.40;96.70
45115;DHT22;30877;43.706;10.780;2023-03-23T09:33:40;17.30;96.70
45115;DHT22;30877;43.706;10.780;2023-03-23T09:36:07;17.30;96.70
45115;DHT22;30877;43.706;10.780;2023-03-23T09:38:39;17.20;96.70
45115;DHT22;30877;43.706;10.780;2023-03-23T09:41:23;17.20;96.70
45115;DHT22;30877;43.706;10.780;2023-03-23T09:44:00;17.20;96.70
45115;DHT22;30877;43.706;10.780;2023-03-23T09:46:41;17.30;96.70
45115;DHT22;30877;43.706;10.780;2023-03-23T09:49:11;17.30;96.70
45115;DHT22;30877;43.706;10.780;2023-03-23T09:51:44;17.20;96.70
45115;DHT22;30877;43.706;10.780;2023-03-23T09:54:18;17.00;96.70
45115;DHT22;30877;43.706;10.780;2023-03-23T09:56:48;17.10;96.70
45115;DHT22;30877;43.706;10.780;2023-03-23T09:59:19;17.20;96.70
45115;DHT22;30877;43.706;10.780;2023-03-23T10:01:51;17.40;96.70
45115;DHT22;30877;43.706;10.780;2023-03-23T10:04:28;17.40;96.70
45115;DHT22;30877;43.706;10.780;2023-03-23T10:06:59;17.50;96.70
45115;DHT22;30877;43.706;10.780;2023-03-23T10:09:27;17.40;96.70
45115;DHT22;30877;43.706;10.780;2023-03-23T10:12:03;17.60;96.70
45115;DHT22;30877;43.706;10.780;2023-03-23T10:14:38;17.80;96.70
45115;DHT22;30877;43.706;10.780;2023-03-23T10:17:14;18.00;96.70
45115;DHT22;30877;43.706;10.780;2023-03-23T10:19:47;18.10;96.70
45115;DHT22;30877;43.706;10.780;2023-03-23T10:22:23;18.10;96.70
45115;DHT22;30877;43.706;10.780;2023-03-23T10:24:56;17.90;96.70
45115;DHT22;30877;43.706;10.780;2023-03-23T10:27:30;17.90;96.70
45115;DHT22;30877;43.706;10.780;2023-03-23T10:30:03;17.80;96.70
45115;DHT22;30877;43.706;10.780;2023-03-23T10:32:40;17.90;96.70
45115;DHT22;30877;43.706;10.780;2023-03-23T10:35:12;18.10;96.70
45115;DHT22;30877;43.706;10.780;2023-03-23T10:37:47;18.20;96.70
45115;DHT22;30877;43.706;10.780;2023-03-23T10:40:17;18.20;96.70
45115;DHT22;30877;43.706;10.780;2023-03-23T10:42:47;18.40;96.70
45115;DHT22;30877;43.706;10.780;2023-03-23T10:45:18;18.40;96.70
45115;DHT22;30877;43.706;10.780;2023-03-23T10:47:51;18.50;96.70
45115;DHT22;30877;43.706;10.780;2023-03-23T10:50:25;18.50;96.70
45115;DHT22;30877;43.706;10.780;2023-03-23T10:52:56;18.40;96.70
45115;DHT22;30877;43.706;10.780;2023-03-23T10:55:35;18.40;96.70
45115;DHT22;30877;43.706;10.780;2023-03-23T10:58:25;18.40;96.70
45115;DHT22;30877;43.706;10.780;2023-03-23T11:00:55;18.50;96.70
45115;DHT22;30877;43.706;10.780;2023-03-23T11:03:27;18.50;96.70
45115;DHT22;30877;43.706;10.780;2023-03-23T11:05:57;18.40;96.70
45115;DHT22;30877;43.706;10.780;2023-03-23T11:08:27;18.60;96.70
45115;DHT22;30877;43.706;10.780;2023-03-23T11:10:58;18.90;96.70
45115;DHT22;30877;43.706;10.780;2023-03-23T11:13:31;19.00;96.70
45115;DHT22;30877;43.706;10.780;2023-03-23T11:15:59;18.90;96.70
45115;DHT22;30877;43.706;10.780;2023-03-23T11:18:34;18.70;96.70
45115;DHT22;30877;43.706;10.780;2023-03-23T11:21:03;18.80;96.70
45115;DHT22;30877;43.706;10.780;2023-03-23T11:23:33;18.80;96.70
45115;DHT22;30877;43.706;10.780;2023-03-23T11:26:08;18.80;96.70
45115;DHT22;30877;43.706;10.780;2023-03-23T11:28:42;18.70;96.70
45115;DHT22;30877;43.706;10.780;2023-03-23T11:31:10;18.70;96.70
45115;DHT22;30877;43.706;10.780;2023-03-23T11:33:42;18.70;96.70
45115;DHT22;30877;43.706;10.780;2023-03-23T11:36:09;18.80;96.70
45115;DHT22;30877;43.706;10.780;2023-03-23T11:38:39;18.90;96.70
45115;DHT22;30877;43.706;10.780;2023-03-23T11:41:10;18.90;96.70
45115;DHT22;30877;43.706;10.780;2023-03-23T11:43:45;18.90;96.70
45115;DHT22;30877;43.706;10.780;2023-03-23T11:46:22;18.90;96.70
45115;DHT22;30877;43.706;10.780;2023-03-23T11:48:57;18.90;96.70
45115;DHT22;30877;43.706;10.780;2023-03-23T11:51:30;19.10;96.70
45115;DHT22;30877;43.706;10.780;2023-03-23T11:54:09;19.00;96.70
45115;DHT22;30877;43.706;10.780;2023-03-23T11:56:40;19.20;96.70
45115;DHT22;30877;43.706;10.780;2023-03-23T11:59:12;19.50;96.70
45115;DHT22;30877;43.706;10.780;2023-03-23T12:01:48;19.50;96.70
45115;DHT22;30877;43.706;10.780;2023-03-23T12:04:35;19.50;96.70
45115;DHT22;30877;43.706;10.780;2023-03-23T12:07:15;19.50;96.70
45115;DHT22;30877;43.706;10.780;2023-03-23T12:09:53;19.50;96.70
45115;DHT22;30877;43.706;10.780;2023-03-23T12:12:31;19.50;96.70
45115;DHT22;30877;43.706;10.780;2023-03-23T12:15:10;19.50;96.70
45115;DHT22;30877;43.706;10.780;2023-03-23T12:17:47;19.50;96.70
45115;DHT22;30877;43.706;10.780;2023-03-23T12:20:24;19.80;96.70
45115;DHT22;30877;43.706;10.780;2023-03-23T12:23:07;19.90;96.70
45115;DHT22;30877;43.706;10.780;2023-03-23T12:26:09;19.90;96.70
45115;DHT22;30877;43.706;10.780;2023-03-23T12:31:49;19.60;96.70
45115;DHT22;30877;43.706;10.780;2023-03-23T12:34:26;19.60;96.70
45115;DHT22;30877;43.706;10.780;2023-03-23T12:37:04;19.50;96.70
45115;DHT22;30877;43.706;10.780;2023-03-23T12:40:00;19.30;96.70
45115;DHT22;30877;43.706;10.780;2023-03-23T12:42:38;19.20;96.70
45115;DHT22;30877;43.706;10.780;2023-03-23T12:45:17;19.10;96.70
45115;DHT22;30877;43.706;10.780;2023-03-23T12:47:50;19.00;96.70
45115;DHT22;30877;43.706;10.780;2023-03-23T12:50:23;19.00;96.70
45115;DHT22;30877;43.706;10.780;2023-03-23T12:52:56;19.00;96.70
45115;DHT22;30877;43.706;10.780;2023-03-23T12:55:29;18.80;96.70
45115;DHT22;30877;43.706;10.780;2023-03-23T12:58:02;18.60;96.70
45115;DHT22;30877;43.706;10.780;2023-03-23T13:00:46;18.50;96.70
45115;DHT22;30877;43.706;10.780;2023-03-23T13:03:22;18.50;96.70
45115;DHT22;30877;43.706;10.780;2023-03-23T13:05:57;18.60;96.70
45115;DHT22;30877;43.706;10.780;2023-03-23T13:08:27;18.70;96.70
45115;DHT22;30877;43.706;10.780;2023-03-23T13:11:00;18.70;96.70
45115;DHT22;30877;43.706;10.780;2023-03-23T13:13:43;18.80;96.70
45115;DHT22;30877;43.706;10.780;2023-03-23T13:16:19;18.80;96.70
45115;DHT22;30877;43.706;10.780;2023-03-23T13:18:55;19.00;96.70
45115;DHT22;30877;43.706;10.780;2023-03-23T13:21:29;19.10;96.70
45115;DHT22;30877;43.706;10.780;2023-03-23T13:24:00;19.40;96.70
45115;DHT22;30877;43.706;10.780;2023-03-23T13:26:30;19.70;96.70
45115;DHT22;30877;43.706;10.780;2023-03-23T13:28:59;19.80;96.70
45115;DHT22;30877;43.706;10.780;2023-03-23T13:31:30;19.80;96.70
45115;DHT22;30877;43.706;10.780;2023-03-23T13:34:04;20.00;96.70
45115;DHT22;30877;43.706;10.780;2023-03-23T13:36:35;19.80;96.70
45115;DHT22;30877;43.706;10.780;2023-03-23T13:39:04;19.60;96.70
45115;DHT22;30877;43.706;10.780;2023-03-23T13:41:44;19.60;96.70
45115;DHT22;30877;43.706;10.780;2023-03-23T13:44:21;19.70;96.70
45115;DHT22;30877;43.706;10.780;2023-03-23T13:47:03;19.60;96.70
45115;DHT22;30877;43.706;10.780;2023-03-23T13:49:33;19.50;96.70
45115;DHT22;30877;43.706;10.780;2023-03-23T13:52:06;19.30;96.70
45115;DHT22;30877;43.706;10.780;2023-03-23T13:54:44;19.40;96.70
45115;DHT22;30877;43.706;10.780;2023-03-23T13:57:36;19.50;96.70
45115;DHT22;30877;43.706;10.780;2023-03-23T14:00:26;19.80;96.70
45115;DHT22;30877;43.706;10.780;2023-03-23T14:03:01;20.00;96.70
45115;DHT22;30877;43.706;10.780;2023-03-23T14:05:36;20.00;96.70
45115;DHT22;30877;43.706;10.780;2023-03-23T14:08:12;19.90;96.70
45115;DHT22;30877;43.706;10.780;2023-03-23T14:10:42;20.20;96.70
45115;DHT22;30877;43.706;10.780;2023-03-23T14:13:19;20.10;96.70
45115;DHT22;30877;43.706;10.780;2023-03-23T14:15:56;20.20;96.70
45115;DHT22;30877;43.706;10.780;2023-03-23T14:18:29;20.50;96.70
45115;DHT22;30877;43.706;10.780;2023-03-23T14:20:59;20.60;96.70
45115;DHT22;30877;43.706;10.780;2023-03-23T14:23:26;20.70;96.70
45115;DHT22;30877;43.706;10.780;2023-03-23T14:25:58;20.70;96.70
45115;DHT22;30877;43.706;10.780;2023-03-23T14:28:49;20.90;96.70
45115;DHT22;30877;43.706;10.780;2023-03-23T14:31:18;21.10;96.70
45115;DHT22;30877;43.706;10.780;2023-03-23T14:33:46;21.10;96.70
45115;DHT22;30877;43.706;10.780;2023-03-23T14:36:20;21.20;96.70
45115;DHT22;30877;43.706;10.780;2023-03-23T14:38:47;21.30;96.70
45115;DHT22;30877;43.706;10.780;2023-03-23T14:41:14;21.40;96.70
45115;DHT22;30877;43.706;10.780;2023-03-23T14:43:41;21.40;96.70
45115;DHT22;30877;43.706;10.780;2023-03-23T14:46:10;21.70;96.70
45115;DHT22;30877;43.706;10.780;2023-03-23T14:48:38;21.70;96.70
45115;DHT22;30877;43.706;10.780;2023-03-23T14:51:06;21.90;96.70
45115;DHT22;30877;43.706;10.780;2023-03-23T14:53:36;22.20;96.70
45115;DHT22;30877;43.706;10.780;2023-03-23T14:56:10;22.00;96.70
45115;DHT22;30877;43.706;10.780;2023-03-23T14:58:37;22.20;96.70
45115;DHT22;30877;43.706;10.780;2023-03-23T15:01:08;22.10;96.70
45115;DHT22;30877;43.706;10.780;2023-03-23T15:03:38;22.50;96.70
45115;DHT22;30877;43.706;10.780;2023-03-23T15:06:11;22.70;96.70
45115;DHT22;30877;43.706;10.780;2023-03-23T15:08:41;22.60;96.70
45115;DHT22;30877;43.706;10.780;2023-03-23T15:11:12;22.90;96.70
45115;DHT22;30877;43.706;10.780;2023-03-23T15:13:47;23.00;96.70
45115;DHT22;30877;43.706;10.780;2023-03-23T15:16:19;22.70;96.70
45115;DHT22;30877;43.706;10.780;2023-03-23T15:18:49;22.70;96.70
45115;DHT22;30877;43.706;10.780;2023-03-23T15:21:23;22.90;96.70
45115;DHT22;30877;43.706;10.780;2023-03-23T15:23:53;22.60;96.70
45115;DHT22;30877;43.706;10.780;2023-03-23T15:26:32;22.40;96.70
45115;DHT22;30877;43.706;10.780;2023-03-23T15:29:03;22.30;96.70
45115;DHT22;30877;43.706;10.780;2023-03-23T15:31:30;22.70;96.70
45115;DHT22;30877;43.706;10.780;2023-03-23T15:34:01;22.70;96.70
45115;DHT22;30877;43.706;10.780;2023-03-23T15:36:33;22.60;96.70
45115;DHT22;30877;43.706;10.780;2023-03-23T15:39:02;22.50;96.70
45115;DHT22;30877;43.706;10.780;2023-03-23T15:41:30;22.60;96.70
45115;DHT22;30877;43.706;10.780;2023-03-23T15:44:20;22.70;96.70
45115;DHT22;30877;43.706;10.780;2023-03-23T15:46:49;22.80;96.70
45115;DHT22;30877;43.706;10.780;2023-03-23T15:49:16;22.50;96.70
45115;DHT22;30877;43.706;10.780;2023-03-23T15:51:44;21.70;96.70
45115;DHT22;30877;43.706;10.780;2023-03-23T15:54:14;20.70;96.70
45115;DHT22;30877;43.706;10.780;2023-03-23T15:56:41;20.00;96.70
45115;DHT22;30877;43.706;10.780;2023-03-23T15:59:08;19.40;96.70
45115;DHT22;30877;43.706;10.780;2023-03-23T16:01:37;19.10;96.70
45115;DHT22;30877;43.706;10.780;2023-03-23T16:04:08;18.90;96.70